Felicity, Ohio
Current Conditions -  °F | °C
As of 2:53 PM on Thursday 29 Jan 2015 (Local Time) from KLUK Reporting Station
Overcast Overcast  
Wind Chill: 36°   Ceiling: 2300
Heat Index: 44°   Visibility: 9mi
Dew Point: 36°   Wind: 17mph
Humidity: 73%   Direction: 270°W
Pressure: 29.91"   Gusts: 30mph
Location:  38.84°N, 84.1°W
Report Text: KLUK 291953Z 27015G26KT 9SM OVC023 07/02 A2991 RMK AO2 PK WND 24031/1855 PRESRR SLP131 T00670022
Loading
Personal Weather Stations






























Interactive Weather Map New forecast layout! Learn more

10-Day Weather Forecast

Advertisements
Track Severe Weather on mobile